Time;durP1;ratioP1;P1;durP2;ratioP2;P2;SDS_P1;SDS_P2;PMS_P1;PMS_P2;Temp;Humidity;BMP_temperature;BMP_pressure;BME280_temperature;BME280_humidity;BME280_pressure;Samples;Min_cycle;Max_cycle;Signal;HPM_P1;HPM_P2
2022/02/05 00:01:33;;;;;;;0.00;0.00;;;;;24.20;99740.00;;;;5113825;27;20050;-74
2022/02/05 00:04:09;;;;;;;0.00;0.00;;;;;24.30;99744.00;;;;5129813;27;20041;-73
2022/02/05 00:06:42;;;;;;;0.00;0.00;;;;;24.30;99733.00;;;;5128345;27;20134;-75
2022/02/05 00:12:17;;;;;;;0.00;0.00;;;;;24.20;99745.00;;;;5128668;27;20035;-73
2022/02/05 00:15:20;;;;;;;0.00;0.00;;;;;24.10;99742.00;;;;5128173;27;20096;-73
2022/02/05 00:40:30;;;;;;;0.00;0.00;;;;;23.80;99781.00;;;;5107851;28;20073;-73
2022/02/05 00:43:00;;;;;;;0.00;0.00;;;;;23.60;99787.00;;;;5107499;28;20039;-73
2022/02/05 00:45:33;;;;;;;0.10;0.10;;;;;23.50;99757.00;;;;5108056;28;20123;-74
2022/02/05 00:48:04;;;;;;;0.00;0.00;;;;;23.40;99769.00;;;;5111535;27;20043;-74
2022/02/05 00:50:41;;;;;;;0.00;0.00;;;;;23.40;99748.00;;;;5114094;27;20062;-74
2022/02/05 00:56:11;;;;;;;0.00;0.00;;;;;23.10;99754.00;;;;5098079;28;20101;-74
2022/02/05 00:58:40;;;;;;;0.00;0.00;;;;;23.00;99753.00;;;;5112420;27;20054;-74
2022/02/05 01:01:11;;;;;;;0.00;0.00;;;;;22.90;99745.00;;;;5122161;27;20039;-74
2022/02/05 01:03:41;;;;;;;0.00;0.00;;;;;22.90;99767.00;;;;5124999;27;20039;-74
2022/02/05 01:06:11;;;;;;;0.00;0.00;;;;;22.70;99756.00;;;;5120462;27;20051;-73
2022/02/05 01:08:40;;;;;;;0.00;0.00;;;;;22.70;99747.00;;;;5114162;27;20043;-73
2022/02/05 01:11:10;;;;;;;0.00;0.00;;;;;22.60;99753.00;;;;5108068;28;20036;-73
2022/02/05 01:13:39;;;;;;;0.00;0.00;;;;;22.60;99764.00;;;;5118580;27;20038;-74
2022/02/05 01:16:30;;;;;;;0.00;0.00;;;;;22.50;99765.00;;;;5128014;27;20394;-73
2022/02/05 01:19:00;;;;;;;0.00;0.00;;;;;22.50;99768.00;;;;5128023;27;20054;-74
2022/02/05 01:21:40;;;;;;;0.00;0.00;;;;;22.50;99773.00;;;;5128627;27;20076;-74
2022/02/05 01:24:13;;;;;;;0.00;0.00;;;;;22.50;99789.00;;;;5120808;27;20502;-74
2022/02/05 01:27:31;;;;;;;0.00;0.00;;;;;22.40;99771.00;;;;5116531;27;20066;-75
2022/02/05 01:30:25;;;;;;;0.00;0.00;;;;;22.30;99788.00;;;;5110763;27;20070;-75
2022/02/05 01:32:28;;;;;;;0.00;0.00;;;;;22.30;99771.00;;;;5102964;27;20564;-76
2022/02/05 01:51:58;;;;;;;0.00;0.00;;;;;22.00;99783.00;;;;5105774;27;20059;-74
2022/02/05 01:57:04;;;;;;;0.00;0.00;;;;;22.00;99788.00;;;;5128038;27;20035;-74
2022/02/05 02:05:10;;;;;;;0.00;0.00;;;;;22.00;99783.00;;;;5128010;28;20043;-74
2022/02/05 02:13:24;;;;;;;0.35;0.35;;;;;21.90;99783.00;;;;5119968;27;20040;-75
2022/02/05 02:24:07;;;;;;;0.00;0.00;;;;;21.80;99772.00;;;;5131604;27;20051;-75
2022/02/05 02:27:33;;;;;;;0.00;0.00;;;;;21.80;99753.00;;;;5131776;27;20047;-75
2022/02/05 02:29:44;;;;;;;0.00;0.00;;;;;21.70;99765.00;;;;5120459;27;20197;-75
2022/02/05 02:32:14;;;;;;;0.00;0.00;;;;;21.70;99739.00;;;;5131037;27;20038;-75
2022/02/05 02:34:52;;;;;;;0.00;0.00;;;;;21.70;99756.00;;;;5131314;27;20039;-75
2022/02/05 02:37:30;;;;;;;0.00;0.00;;;;;21.70;99766.00;;;;5131754;27;20105;-76
2022/02/05 02:42:29;;;;;;;0.00;0.00;;;;;21.70;99747.00;;;;5131476;27;20035;-75
2022/02/05 02:44:58;;;;;;;0.00;0.00;;;;;21.70;99750.00;;;;5130846;27;20706;-75
2022/02/05 02:47:28;;;;;;;0.00;0.00;;;;;21.70;99747.00;;;;5131359;27;20047;-75
2022/02/05 02:50:08;;;;;;;0.00;0.00;;;;;21.70;99748.00;;;;5128327;27;20047;-74
2022/02/05 02:58:18;;;;;;;0.00;0.00;;;;;21.60;99734.00;;;;5129798;27;20043;-75
2022/02/05 03:00:54;;;;;;;0.00;0.00;;;;;21.60;99737.00;;;;5130767;27;20046;-75
2022/02/05 03:03:24;;;;;;;0.00;0.00;;;;;21.50;99714.00;;;;5131037;27;20143;-74
2022/02/05 03:05:54;;;;;;;0.00;0.00;;;;;21.50;99723.00;;;;5131290;27;20489;-75
2022/02/05 03:08:23;;;;;;;0.00;0.00;;;;;21.50;99742.00;;;;5130607;27;20596;-75
2022/02/05 03:10:53;;;;;;;0.00;0.00;;;;;21.40;99731.00;;;;5130981;27;20039;-74
2022/02/05 03:13:22;;;;;;;0.00;0.00;;;;;21.40;99719.00;;;;5130773;27;20043;-74
2022/02/05 03:15:52;;;;;;;0.00;0.00;;;;;21.40;99717.00;;;;5130385;27;20121;-75
2022/02/05 03:18:32;;;;;;;0.00;0.00;;;;;21.40;99727.00;;;;5130556;27;20047;-75
2022/02/05 03:21:01;;;;;;;0.00;0.00;;;;;21.40;99714.00;;;;5129072;27;20097;-74
2022/02/05 03:23:30;;;;;;;0.00;0.00;;;;;21.40;99733.00;;;;5130221;27;20046;-74
2022/02/05 03:26:01;;;;;;;0.00;0.00;;;;;21.40;99729.00;;;;5130667;27;20134;-75
2022/02/05 03:28:33;;;;;;;0.00;0.00;;;;;21.30;99730.00;;;;5130117;27;20039;-75
2022/02/05 03:31:03;;;;;;;0.00;0.00;;;;;21.30;99741.00;;;;5129647;27;20539;-75
2022/02/05 03:33:33;;;;;;;0.00;0.00;;;;;21.30;99725.00;;;;5131269;27;20126;-73
2022/02/05 03:36:03;;;;;;;0.00;0.00;;;;;21.30;99739.00;;;;5128632;27;20129;-74
2022/02/05 03:38:32;;;;;;;0.00;0.00;;;;;21.30;99730.00;;;;5130097;27;20043;-74
2022/02/05 03:41:01;;;;;;;0.00;0.00;;;;;21.30;99726.00;;;;5130605;27;20047;-76
2022/02/05 03:43:31;;;;;;;0.00;0.00;;;;;21.20;99747.00;;;;5129940;27;20072;-74
2022/02/05 03:46:00;;;;;;;0.00;0.00;;;;;21.20;99720.00;;;;5130103;27;20386;-75
2022/02/05 03:48:30;;;;;;;0.00;0.00;;;;;21.20;99739.00;;;;5129764;27;20043;-74
2022/02/05 03:50:59;;;;;;;0.13;0.13;;;;;21.20;99739.00;;;;5130184;27;20134;-74
2022/02/05 03:53:29;;;;;;;0.00;0.00;;;;;21.20;99728.00;;;;5129696;27;20035;-73
2022/02/05 03:55:58;;;;;;;0.00;0.00;;;;;21.20;99731.00;;;;5128197;27;20047;-79
2022/02/05 03:58:27;;;;;;;0.00;0.00;;;;;21.20;99719.00;;;;5129745;27;20045;-76
2022/02/05 04:00:57;;;;;;;0.00;0.00;;;;;21.20;99711.00;;;;5129402;27;20049;-78
2022/02/05 04:03:26;;;;;;;0.00;0.00;;;;;21.20;99724.00;;;;5129410;27;20104;-76
2022/02/05 04:05:57;;;;;;;0.00;0.00;;;;;21.10;99711.00;;;;5129996;27;20042;-78
2022/02/05 04:08:27;;;;;;;;;;;;;21.10;99713.00;;;;5130544;27;20070;-75
2022/02/05 04:11:10;;;;;;;0.00;0.00;;;;;21.10;99692.00;;;;5129204;27;19924;-76
2022/02/05 04:16:28;;;;;;;0.00;0.00;;;;;21.20;99688.00;;;;5129725;27;20070;-76
2022/02/05 04:18:57;;;;;;;0.00;0.00;;;;;21.10;99679.00;;;;5128949;27;20055;-75
2022/02/05 04:21:29;;;;;;;0.00;0.00;;;;;21.10;99687.00;;;;5128955;27;20459;-76
2022/02/05 04:24:01;;;;;;;0.00;0.00;;;;;21.10;99698.00;;;;5127739;27;20130;-76
2022/02/05 04:26:31;;;;;;;0.00;0.00;;;;;21.10;99672.00;;;;5127734;27;20509;-78
2022/02/05 04:29:00;;;;;;;0.00;0.00;;;;;21.00;99685.00;;;;5128791;27;20050;-79
2022/02/05 04:31:30;;;;;;;0.00;0.00;;;;;21.00;99670.00;;;;5127801;27;20497;-76
2022/02/05 04:33:59;;;;;;;0.00;0.00;;;;;21.00;99661.00;;;;5127463;27;20058;-79
2022/02/05 04:36:29;;;;;;;0.00;0.00;;;;;21.00;99647.00;;;;5128459;27;20038;-75
2022/02/05 04:39:05;;;;;;;0.00;0.00;;;;;21.00;99633.00;;;;5128141;27;20051;-76
2022/02/05 04:44:54;;;;;;;0.00;0.00;;;;;21.00;99647.00;;;;5119048;27;20134;-80
2022/02/05 04:48:45;;;;;;;0.00;0.00;;;;;21.00;99643.00;;;;5128741;27;20089;-76
2022/02/05 05:01:33;;;;;;;0.00;0.00;;;;;20.90;99627.00;;;;5131469;27;20047;-76
2022/02/05 05:12:23;;;;;;;0.00;0.00;;;;;20.90;99649.00;;;;5134400;27;20035;-78
2022/02/05 05:15:27;;;;;;;0.00;0.00;;;;;20.90;99646.00;;;;5143843;27;20072;-78
2022/02/05 05:20:57;;;;;;;0.00;0.00;;;;;20.90;99659.00;;;;5152967;27;20058;-80
2022/02/05 05:23:26;;;;;;;0.00;0.00;;;;;21.00;99651.00;;;;5151345;27;20072;-77
2022/02/05 05:25:55;;;;;;;0.00;0.00;;;;;21.00;99647.00;;;;5149439;27;20051;-74
2022/02/05 05:28:25;;;;;;;0.00;0.00;;;;;21.10;99636.00;;;;5147181;27;20051;-80
2022/02/05 05:30:54;;;;;;;0.00;0.00;;;;;21.10;99625.00;;;;5133323;27;20608;-78
2022/02/05 05:33:23;;;;;;;0.00;0.00;;;;;21.20;99621.00;;;;5109535;27;20051;-76
2022/02/05 05:35:53;;;;;;;0.00;0.00;;;;;21.20;99628.00;;;;5126991;27;20062;-78
2022/02/05 05:38:22;;;;;;;0.15;0.15;;;;;21.20;99635.00;;;;5127860;27;20046;-79
2022/02/05 05:40:51;;;;;;;0.00;0.00;;;;;21.20;99604.00;;;;5127375;27;20517;-73
2022/02/05 05:43:52;;;;;;;0.00;0.00;;;;;21.20;99601.00;;;;5128222;27;20039;-74
2022/02/05 05:46:17;;;;;;;0.00;0.00;;;;;21.20;99601.00;;;;5127556;27;20092;-78
2022/02/05 05:51:21;;;;;;;0.00;0.00;;;;;21.20;99602.00;;;;5128100;27;20132;-75
2022/02/05 05:53:51;;;;;;;0.00;0.00;;;;;21.10;99593.00;;;;5126446;27;20096;-77
2022/02/05 05:56:23;;;;;;;0.00;0.00;;;;;21.10;99585.00;;;;5127626;27;20050;-76
2022/02/05 05:58:53;;;;;;;0.10;0.10;;;;;21.10;99577.00;;;;5127763;27;20055;-82
2022/02/05 06:01:23;;;;;;;0.00;0.00;;;;;21.10;99573.00;;;;5127523;27;20031;-80
2022/02/05 06:03:52;;;;;;;0.00;0.00;;;;;21.10;99572.00;;;;5127231;27;20501;-76
2022/02/05 06:06:22;;;;;;;0.00;0.00;;;;;21.10;99581.00;;;;5126462;28;20039;-82
2022/02/05 06:08:51;;;;;;;0.00;0.00;;;;;21.00;99598.00;;;;5127717;28;20039;-77
2022/02/05 06:11:21;;;;;;;0.00;0.00;;;;;21.10;99590.00;;;;5127421;27;20490;-79
2022/02/05 06:13:51;;;;;;;0.00;0.00;;;;;21.10;99597.00;;;;5127093;27;20039;-79
2022/02/05 06:16:27;;;;;;;0.00;0.00;;;;;21.00;99590.00;;;;5127130;27;20502;-77
2022/02/05 06:18:58;;;;;;;0.00;0.00;;;;;21.00;99576.00;;;;5127989;28;20050;-78
2022/02/05 06:21:27;;;;;;;0.00;0.00;;;;;21.00;99584.00;;;;5127724;27;20047;-76
2022/02/05 06:23:56;;;;;;;0.00;0.00;;;;;20.90;99591.00;;;;5125992;28;20047;-77
2022/02/05 06:26:26;;;;;;;0.00;0.00;;;;;20.90;99585.00;;;;5127208;27;20050;-76
2022/02/05 06:28:55;;;;;;;0.00;0.00;;;;;20.90;99570.00;;;;5126411;28;20047;-77
2022/02/05 06:31:24;;;;;;;0.00;0.00;;;;;20.80;99570.00;;;;5126027;28;20105;-74
2022/02/05 06:33:54;;;;;;;0.00;0.00;;;;;20.90;99567.00;;;;5126424;27;20068;-76
2022/02/05 06:36:24;;;;;;;0.00;0.00;;;;;20.90;99570.00;;;;5127820;27;20036;-77
2022/02/05 06:38:53;;;;;;;0.00;0.00;;;;;20.90;99542.00;;;;5127606;27;20061;-81
2022/02/05 06:41:23;;;;;;;0.00;0.00;;;;;20.80;99554.00;;;;5127241;27;20039;-76
2022/02/05 06:43:52;;;;;;;0.00;0.00;;;;;20.80;99569.00;;;;5126395;28;20554;-78
2022/02/05 06:46:22;;;;;;;0.00;0.00;;;;;20.80;99567.00;;;;5127499;28;20035;-79
2022/02/05 06:48:51;;;;;;;0.00;0.00;;;;;20.70;99560.00;;;;5127111;27;20035;-77
2022/02/05 06:51:20;;;;;;;0.00;0.00;;;;;20.70;99554.00;;;;5125547;28;20055;-78
2022/02/05 06:53:50;;;;;;;0.00;0.00;;;;;20.70;99557.00;;;;5125101;28;20054;-76
2022/02/05 06:56:19;;;;;;;0.00;0.00;;;;;20.70;99536.00;;;;5128756;27;20047;-76
2022/02/05 06:58:50;;;;;;;0.00;0.00;;;;;20.70;99556.00;;;;5129750;27;20116;-76
2022/02/05 07:01:19;;;;;;;0.00;0.00;;;;;20.70;99555.00;;;;5130756;27;20042;-79
2022/02/05 07:03:50;;;;;;;0.00;0.00;;;;;20.70;99536.00;;;;5131197;27;20043;-75
2022/02/05 07:06:19;;;;;;;0.00;0.00;;;;;20.70;99573.00;;;;5130032;27;20111;-77
2022/02/05 07:08:48;;;;;;;0.00;0.00;;;;;20.70;99573.00;;;;5129883;27;20130;-79
2022/02/05 07:11:19;;;;;;;0.00;0.00;;;;;20.80;99581.00;;;;5130597;27;20055;-78
2022/02/05 07:13:51;;;;;;;0.00;0.00;;;;;20.80;99569.00;;;;5130817;27;20055;-74
2022/02/05 07:16:28;;;;;;;0.00;0.00;;;;;20.80;99575.00;;;;5130666;27;20514;-74
2022/02/05 07:19:18;;;;;;;0.00;0.00;;;;;20.80;99581.00;;;;5130273;27;20138;-79
2022/02/05 07:21:52;;;;;;;0.00;0.00;;;;;20.80;99572.00;;;;5129995;27;20047;-75
2022/02/05 07:24:35;;;;;;;0.00;0.00;;;;;20.80;99575.00;;;;5130796;27;20035;-78
2022/02/05 07:29:53;;;;;;;0.00;0.00;;;;;20.80;99579.00;;;;5130260;27;20052;-76
2022/02/05 07:32:24;;;;;;;0.00;0.00;;;;;20.80;99572.00;;;;5129155;27;20042;-79
2022/02/05 07:34:54;;;;;;;0.00;0.00;;;;;20.80;99590.00;;;;5130107;27;20050;-76
2022/02/05 07:37:24;;;;;;;0.00;0.00;;;;;20.80;99576.00;;;;5130572;27;20042;-76
2022/02/05 07:39:54;;;;;;;0.00;0.00;;;;;20.80;99578.00;;;;5128861;27;20126;-76
2022/02/05 07:42:24;;;;;;;0.00;0.00;;;;;20.90;99568.00;;;;5128810;27;20051;-76
2022/02/05 07:44:57;;;;;;;0.00;0.00;;;;;20.90;99579.00;;;;5130270;27;20046;-74
2022/02/05 07:47:32;;;;;;;0.00;0.00;;;;;20.90;99570.00;;;;5129455;27;20126;-73
2022/02/05 07:50:02;;;;;;;0.00;0.00;;;;;20.90;99574.00;;;;5111272;27;20063;-79
2022/02/05 07:52:32;;;;;;;0.00;0.00;;;;;20.90;99578.00;;;;5129207;27;20406;-76
2022/02/05 07:55:02;;;;;;;0.00;0.00;;;;;20.90;99574.00;;;;5129792;27;20398;-76
2022/02/05 07:57:31;;;;;;;0.00;0.00;;;;;20.90;99594.00;;;;5130040;27;20484;-79
2022/02/05 08:00:00;;;;;;;0.00;0.00;;;;;20.80;99583.00;;;;5128309;27;20047;-73
2022/02/05 08:02:39;;;;;;;0.00;0.00;;;;;20.80;99588.00;;;;5129563;27;20509;-77
2022/02/05 08:05:10;;;;;;;0.00;0.00;;;;;20.80;99597.00;;;;5129979;27;20504;-74
2022/02/05 08:07:40;;;;;;;0.00;0.00;;;;;20.80;99579.00;;;;5128881;27;20406;-77
2022/02/05 08:10:11;;;;;;;0.00;0.00;;;;;20.80;99603.00;;;;5129835;27;20894;-78
2022/02/05 08:12:47;;;;;;;0.00;0.00;;;;;20.80;99601.00;;;;5129624;27;20042;-78
2022/02/05 08:15:22;;;;;;;0.00;0.00;;;;;20.80;99614.00;;;;5129981;27;20043;-73
2022/02/05 08:17:52;;;;;;;0.00;0.00;;;;;20.70;99607.00;;;;5129707;27;20039;-75
2022/02/05 08:20:21;;;;;;;0.00;0.00;;;;;20.70;99621.00;;;;5128969;27;20421;-76
2022/02/05 08:22:51;;;;;;;0.00;0.00;;;;;20.70;99604.00;;;;5129168;27;20061;-78
2022/02/05 08:25:20;;;;;;;0.00;0.00;;;;;20.70;99623.00;;;;5129112;27;20042;-74
2022/02/05 08:27:50;;;;;;;0.00;0.00;;;;;20.70;99630.00;;;;5128759;27;20093;-79
2022/02/05 08:30:22;;;;;;;0.00;0.00;;;;;20.60;99622.00;;;;5128907;27;20052;-78
2022/02/05 08:32:52;;;;;;;0.00;0.00;;;;;20.60;99621.00;;;;5128808;27;20039;-75
2022/02/05 08:35:21;;;;;;;0.00;0.00;;;;;20.60;99615.00;;;;5128832;27;20066;-80
2022/02/05 08:37:53;;;;;;;0.00;0.00;;;;;20.50;99617.00;;;;5128403;27;20057;-75
2022/02/05 08:40:22;;;;;;;0.00;0.00;;;;;20.50;99633.00;;;;5128777;27;20534;-74
2022/02/05 08:42:52;;;;;;;0.00;0.00;;;;;20.50;99652.00;;;;5128753;27;20043;-78
2022/02/05 08:45:22;;;;;;;0.00;0.00;;;;;20.40;99632.00;;;;5128607;27;20043;-79
2022/02/05 08:47:53;;;;;;;0.00;0.00;;;;;20.50;99640.00;;;;5129097;27;20592;-81
2022/02/05 08:50:26;;;;;;;0.00;0.00;;;;;20.50;99635.00;;;;5128173;27;20046;-75
2022/02/05 08:52:56;;;;;;;0.00;0.00;;;;;20.60;99641.00;;;;5129402;27;20043;-76
2022/02/05 08:55:30;;;;;;;0.00;0.00;;;;;20.60;99635.00;;;;5128547;27;20047;-78
2022/02/05 08:58:01;;;;;;;0.00;0.00;;;;;20.50;99653.00;;;;5128756;27;20043;-80
2022/02/05 09:00:31;;;;;;;0.00;0.00;;;;;20.50;99658.00;;;;5128327;27;20046;-77
2022/02/05 09:03:09;;;;;;;0.00;0.00;;;;;20.60;99657.00;;;;5128171;27;20118;-79
2022/02/05 09:05:46;;;;;;;0.00;0.00;;;;;20.60;99662.00;;;;5128386;27;20480;-80
2022/02/05 09:08:29;;;;;;;0.00;0.00;;;;;20.70;99671.00;;;;5126590;27;20081;-76
2022/02/05 09:11:09;;;;;;;0.00;0.00;;;;;20.80;99689.00;;;;5126700;27;20063;-80
2022/02/05 09:16:16;;;;;;;0.00;0.00;;;;;21.00;99679.00;;;;5128674;27;20091;-77
2022/02/05 09:18:46;;;;;;;0.00;0.00;;;;;21.10;99681.00;;;;5126750;27;20047;-75
2022/02/05 09:21:17;;;;;;;0.00;0.00;;;;;21.20;99712.00;;;;5128492;27;20047;-76
2022/02/05 09:23:52;;;;;;;0.00;0.00;;;;;21.40;99709.00;;;;5126482;27;20408;-77
2022/02/05 09:26:25;;;;;;;0.00;0.00;;;;;21.50;99711.00;;;;5128010;27;20050;-75
2022/02/05 09:29:00;;;;;;;0.00;0.00;;;;;21.60;99716.00;;;;5128196;27;20118;-76
2022/02/05 09:31:35;;;;;;;0.00;0.00;;;;;21.60;99712.00;;;;5127334;27;20505;-78
2022/02/05 09:34:05;;;;;;;0.00;0.00;;;;;21.70;99705.00;;;;5128472;27;20035;-77
2022/02/05 09:36:36;;;;;;;0.00;0.00;;;;;21.80;99714.00;;;;5127629;27;20046;-74
2022/02/05 09:39:08;;;;;;;0.00;0.00;;;;;22.00;99712.00;;;;5127111;27;20065;-74
2022/02/05 09:41:39;;;;;;;0.00;0.00;;;;;22.20;99715.00;;;;5126864;27;20051;-76
2022/02/05 09:44:09;;;;;;;0.00;0.00;;;;;22.30;99716.00;;;;5126035;27;20401;-75
2022/02/05 09:46:39;;;;;;;0.00;0.00;;;;;22.40;99734.00;;;;5109074;27;20057;-77
2022/02/05 09:49:10;;;;;;;0.00;0.00;;;;;22.40;99739.00;;;;5127626;27;20047;-77
2022/02/05 09:51:46;;;;;;;0.00;0.00;;;;;22.30;99746.00;;;;5127711;27;20077;-79
2022/02/05 09:54:20;;;;;;;0.00;0.00;;;;;22.30;99735.00;;;;5127880;27;20039;-78
2022/02/05 09:56:49;;;;;;;0.00;0.00;;;;;22.40;99732.00;;;;5128156;27;20039;-80
2022/02/05 09:59:19;;;;;;;0.00;0.00;;;;;22.50;99712.00;;;;5128023;27;20047;-74
2022/02/05 10:01:48;;;;;;;0.00;0.00;;;;;22.70;99725.00;;;;5128434;28;20047;-78
2022/02/05 10:04:18;;;;;;;0.00;0.00;;;;;23.40;99685.00;;;;5128644;27;20046;-77
2022/02/05 10:06:49;;;;;;;0.00;0.00;;;;;24.30;99636.00;;;;5127979;27;20121;-75
2022/02/05 10:09:18;;;;;;;;;;;;;26.10;99620.00;;;;5128690;27;20039;-75
2022/02/05 10:12:07;;;;;;;0.00;0.00;;;;;25.70;99660.00;;;;5126691;27;19923;-80
2022/02/05 10:14:36;;;;;;;0.00;0.00;;;;;25.70;99655.00;;;;5127782;28;20046;-78
2022/02/05 10:17:06;;;;;;;0.00;0.00;;;;;26.20;99635.00;;;;5128213;27;20039;-76
2022/02/05 10:19:55;;;;;;;0.00;0.00;;;;;26.80;99703.00;;;;5127990;28;20039;-77
2022/02/05 10:22:38;;;;;;;0.00;0.00;;;;;25.80;99696.00;;;;5127745;27;20065;-74
2022/02/05 10:25:29;;;;;;;0.00;0.00;;;;;25.20;99714.00;;;;5127167;28;20071;-78
2022/02/05 10:27:58;;;;;;;;;;;;;25.00;99709.00;;;;5128395;27;20065;-77
2022/02/05 10:30:30;;;;;;;0.00;0.00;;;;;25.00;99697.00;;;;5127613;27;20362;-80
2022/02/05 10:33:11;;;;;;;0.00;0.00;;;;;25.70;99666.00;;;;5130185;27;20078;-80
2022/02/05 10:36:01;;;;;;;1.00;0.90;;;;;30.30;99544.00;;;;5131677;27;20554;-77
2022/02/05 10:44:23;;;;;;;3.00;0.75;;;;;34.90;99533.00;;;;5130816;27;20074;-81
2022/02/05 10:46:57;;;;;;;0.00;0.00;;;;;35.30;99522.00;;;;5130554;27;20039;-80
2022/02/05 10:49:47;;;;;;;0.00;0.00;;;;;35.70;99531.00;;;;5130810;27;20043;-80
2022/02/05 10:52:34;;;;;;;0.35;0.20;;;;;35.60;99547.00;;;;5130954;27;20125;-79
2022/02/05 10:55:19;;;;;;;0.10;0.10;;;;;35.60;99529.00;;;;5129040;27;20815;-80
2022/02/05 10:58:29;;;;;;;0.00;0.00;;;;;36.10;99536.00;;;;5130755;27;20386;-80
2022/02/05 11:06:04;;;;;;;0.00;0.00;;;;;35.70;99540.00;;;;5129855;27;20491;-75
2022/02/05 11:08:34;;;;;;;0.00;0.00;;;;;33.60;99643.00;;;;5131106;27;20416;-76
2022/02/05 11:14:27;;;;;;;0.10;0.10;;;;;32.60;99623.00;;;;5095091;27;20049;-79
2022/02/05 11:17:22;;;;;;;0.00;0.00;;;;;34.30;99574.00;;;;5129981;27;20413;-76
2022/02/05 11:19:48;;;;;;;0.00;0.00;;;;;36.80;99468.00;;;;5130469;27;20047;-79
2022/02/05 11:22:19;;;;;;;0.00;0.00;;;;;37.90;99471.00;;;;5130010;27;20035;-80
2022/02/05 11:24:51;;;;;;;0.00;0.00;;;;;38.40;99500.00;;;;5129657;27;20604;-78
2022/02/05 11:27:21;;;;;;;0.00;0.00;;;;;38.20;99456.00;;;;5129955;27;20092;-78
2022/02/05 11:29:53;;;;;;;0.00;0.00;;;;;35.10;99643.00;;;;5130239;27;20043;-72
2022/02/05 11:32:31;;;;;;;0.10;0.10;;;;;31.40;99689.00;;;;5128443;27;20039;-75
2022/02/05 11:35:12;;;;;;;0.00;0.00;;;;;29.90;99707.00;;;;5128021;27;20074;-77
2022/02/05 11:38:11;;;;;;;0.00;0.00;;;;;29.60;99706.00;;;;5129556;27;20516;-77
2022/02/05 11:40:50;;;;;;;0.00;0.00;;;;;29.60;99706.00;;;;5114454;27;20075;-77
2022/02/05 11:43:33;;;;;;;0.00;0.00;;;;;29.90;99685.00;;;;5126717;27;20489;-76
2022/02/05 11:46:08;;;;;;;0.00;0.00;;;;;33.00;99598.00;;;;5128213;27;20051;-78
2022/02/05 11:49:04;;;;;;;0.08;0.08;;;;;33.00;99626.00;;;;5128665;27;20053;-78
2022/02/05 11:51:42;;;;;;;0.10;0.10;;;;;31.70;99697.00;;;;5129771;27;20051;-79
2022/02/05 11:54:17;;;;;;;0.17;0.10;;;;;30.70;99709.00;;;;5127832;27;20050;-78
2022/02/05 11:56:53;;;;;;;0.00;0.00;;;;;30.20;99721.00;;;;5128962;27;20535;-74
2022/02/05 11:59:49;;;;;;;0.00;0.00;;;;;30.20;99718.00;;;;5130361;27;20038;-79
2022/02/05 12:02:22;;;;;;;0.00;0.00;;;;;30.60;99711.00;;;;5127463;27;20513;-79
2022/02/05 12:05:13;;;;;;;0.65;0.45;;;;;30.50;99717.00;;;;5129397;27;20527;-74
2022/02/05 12:08:13;;;;;;;0.00;0.00;;;;;30.80;99716.00;;;;5129138;27;20039;-78
2022/02/05 12:10:51;;;;;;;0.10;0.05;;;;;30.60;99728.00;;;;5129488;27;20047;-77
2022/02/05 12:13:29;;;;;;;0.00;0.00;;;;;30.90;99727.00;;;;5129426;27;20043;-76
2022/02/05 12:15:59;;;;;;;0.00;0.00;;;;;30.70;99744.00;;;;5129389;27;20043;-75
2022/02/05 12:18:32;;;;;;;0.00;0.00;;;;;30.80;99715.00;;;;5129178;27;20398;-76
2022/02/05 12:21:11;;;;;;;0.10;0.10;;;;;31.10;99734.00;;;;5129070;27;20148;-76
2022/02/05 12:26:25;;;;;;;0.00;0.00;;;;;32.10;99692.00;;;;5129230;27;20078;-73
2022/02/05 12:29:02;;;;;;;0.00;0.00;;;;;32.00;99702.00;;;;5108025;27;20051;-75
2022/02/05 12:31:34;;;;;;;0.00;0.00;;;;;32.10;99707.00;;;;5107825;28;20050;-76
2022/02/05 12:34:14;;;;;;;0.00;0.00;;;;;32.50;99692.00;;;;5107838;28;20076;-73
2022/02/05 12:36:47;;;;;;;0.00;0.00;;;;;32.20;99686.00;;;;5108565;28;20101;-77
2022/02/05 12:39:26;;;;;;;0.40;0.10;;;;;32.00;99688.00;;;;5107351;28;20055;-79
2022/02/05 12:42:02;;;;;;;0.00;0.00;;;;;32.10;99676.00;;;;5108110;28;20085;-81
2022/02/05 12:44:36;;;;;;;0.30;0.20;;;;;33.20;99659.00;;;;5106638;28;20134;-76
2022/02/05 12:47:33;;;;;;;0.10;0.10;;;;;33.30;99649.00;;;;5107601;28;20615;-78
2022/02/05 12:50:11;;;;;;;0.35;0.28;;;;;32.70;99660.00;;;;5108191;28;20035;-78
2022/02/05 12:52:49;;;;;;;0.08;0.08;;;;;32.60;99663.00;;;;5107034;28;20066;-77
2022/02/05 12:55:26;;;;;;;0.28;0.20;;;;;31.90;99671.00;;;;5107245;28;20444;-80
2022/02/05 12:58:03;;;;;;;0.00;0.00;;;;;32.00;99682.00;;;;5109067;28;20054;-84
2022/02/05 13:00:33;;;;;;;0.40;0.38;;;;;32.40;99661.00;;;;5107378;28;20051;-79
2022/02/05 13:03:02;;;;;;;0.00;0.00;;;;;33.00;99651.00;;;;5107574;28;20054;-74
2022/02/05 13:05:33;;;;;;;0.00;0.00;;;;;33.60;99642.00;;;;5106292;28;20184;-80
2022/02/05 13:08:02;;;;;;;0.00;0.00;;;;;34.30;99652.00;;;;5090621;28;20757;-78
2022/02/05 13:10:46;;;;;;;0.07;0.00;;;;;34.70;99646.00;;;;5107607;28;20040;-74
2022/02/05 13:13:16;;;;;;;0.20;0.10;;;;;34.50;99635.00;;;;5089512;28;20587;-74
2022/02/05 13:16:06;;;;;;;0.00;0.00;;;;;34.60;99621.00;;;;5107774;28;20061;-76
2022/02/05 13:18:50;;;;;;;0.05;0.05;;;;;35.20;99622.00;;;;5107534;28;20046;-79
2022/02/05 13:27:12;;;;;;;0.28;0.20;;;;;35.30;99615.00;;;;5105739;27;20426;-76
2022/02/05 13:29:57;;;;;;;0.00;0.00;;;;;35.70;99626.00;;;;5107091;28;20044;-74
2022/02/05 13:35:15;;;;;;;0.05;0.05;;;;;35.90;99628.00;;;;5106239;28;20054;-81
2022/02/05 13:37:53;;;;;;;0.00;0.00;;;;;36.20;99623.00;;;;5107440;28;20387;-78
2022/02/05 13:40:24;;;;;;;0.00;0.00;;;;;36.30;99611.00;;;;5107384;28;20135;-80
2022/02/05 13:43:06;;;;;;;1.60;1.02;;;;;35.90;99615.00;;;;5106211;28;20039;-76
2022/02/05 13:45:38;;;;;;;0.30;0.30;;;;;35.40;99595.00;;;;5107130;28;20050;-76
2022/02/05 13:48:07;;;;;;;0.30;0.25;;;;;36.00;99619.00;;;;5105590;28;20047;-75
2022/02/05 13:50:37;;;;;;;0.13;0.13;;;;;36.10;99635.00;;;;5105433;28;20047;-80
2022/02/05 13:53:13;;;;;;;0.15;0.15;;;;;35.20;99615.00;;;;5106470;28;20067;-81
2022/02/05 13:55:50;;;;;;;0.00;0.00;;;;;35.40;99594.00;;;;5107714;28;20510;-80
2022/02/05 13:58:20;;;;;;;0.00;0.00;;;;;36.20;99581.00;;;;5107189;28;20135;-80
2022/02/05 14:00:51;;;;;;;0.00;0.00;;;;;36.70;99598.00;;;;5106784;28;20399;-76
2022/02/05 14:03:29;;;;;;;0.20;0.20;;;;;36.50;99584.00;;;;5105524;28;20051;-75
2022/02/05 14:06:13;;;;;;;0.00;0.00;;;;;35.90;99598.00;;;;5108385;28;20043;-78
2022/02/05 14:08:46;;;;;;;0.20;0.10;;;;;36.60;99584.00;;;;5112687;28;20070;-79
2022/02/05 14:11:27;;;;;;;0.00;0.00;;;;;36.50;99589.00;;;;5114558;28;20422;-77
2022/02/05 14:14:03;;;;;;;0.08;0.05;;;;;36.90;99562.00;;;;5115687;28;20047;-75
2022/02/05 14:16:36;;;;;;;0.00;0.00;;;;;36.70;99621.00;;;;5113854;28;20035;-75
2022/02/05 14:19:07;;;;;;;0.40;0.40;;;;;36.30;99580.00;;;;5115086;28;20528;-74
2022/02/05 14:21:39;;;;;;;;;;;;;35.80;99610.00;;;;5109417;28;20047;-74
2022/02/05 14:24:24;;;;;;;0.10;0.10;;;;;35.30;99619.00;;;;5114960;28;19926;-75
2022/02/05 14:27:07;;;;;;;1.55;0.30;;;;;34.90;99608.00;;;;5107050;28;20050;-74
2022/02/05 14:29:53;;;;;;;0.57;0.52;;;;;34.90;99637.00;;;;5106230;28;20067;-74
2022/02/05 14:32:43;;;;;;;0.28;0.10;;;;;34.70;99586.00;;;;5106753;28;20039;-76
2022/02/05 14:40:49;;;;;;;0.88;0.40;;;;;34.90;99628.00;;;;5115258;28;20048;-73
2022/02/05 14:43:20;;;;;;;0.00;0.00;;;;;33.80;99629.00;;;;5111285;28;20047;-75
2022/02/05 14:45:49;;;;;;;0.00;0.00;;;;;33.20;99640.00;;;;5111335;28;20512;-76
2022/02/05 14:48:19;;;;;;;0.00;0.00;;;;;33.00;99576.00;;;;5114481;28;20134;-75
2022/02/05 14:50:49;;;;;;;0.00;0.00;;;;;35.50;99576.00;;;;5126038;28;20375;-74
2022/02/05 14:53:20;;;;;;;2.78;0.98;;;;;35.90;99561.00;;;;5120359;27;20096;-75
2022/02/05 14:55:49;;;;;;;0.00;0.00;;;;;36.10;99536.00;;;;5115531;27;20046;-75
2022/02/05 14:58:19;;;;;;;0.28;0.28;;;;;36.70;99535.00;;;;5112643;28;20031;-74
2022/02/05 15:00:48;;;;;;;3.20;0.30;;;;;36.10;99526.00;;;;5115455;27;20038;-74
2022/02/05 15:03:19;;;;;;;0.10;0.10;;;;;37.60;99528.00;;;;5124268;28;20093;-75
2022/02/05 15:05:50;;;;;;;0.00;0.00;;;;;38.00;99551.00;;;;5125421;28;20609;-74
2022/02/05 15:08:19;;;;;;;0.00;0.00;;;;;37.90;99579.00;;;;5127075;27;20047;-75
2022/02/05 15:10:49;;;;;;;0.00;0.00;;;;;37.40;99590.00;;;;5119379;28;20051;-75
2022/02/05 15:13:18;;;;;;;0.20;0.20;;;;;36.10;99615.00;;;;5115136;27;20063;-75
2022/02/05 15:15:52;;;;;;;0.00;0.00;;;;;34.60;99606.00;;;;5116817;28;20464;-75